createdAt,value
2019-03-05T00:00:57.149Z,0.5
2019-03-05T00:01:57.123Z,0.4
2019-03-05T00:02:56.999Z,0.5
2019-03-05T00:03:57.023Z,0.6
2019-03-05T00:04:57.404Z,0.4
2019-03-05T00:05:56.974Z,0.6
2019-03-05T00:06:57.026Z,0.5
2019-03-05T00:07:57.223Z,0.5
2019-03-05T00:08:57.001Z,0.6
2019-03-05T00:09:57.008Z,0.5
2019-03-05T00:10:56.999Z,0.5
2019-03-05T00:11:57.165Z,0.7
2019-03-05T00:12:56.999Z,0.5
2019-03-05T00:13:57.200Z,0.4
2019-03-05T00:14:57.185Z,0.5
2019-03-05T00:15:57.009Z,0.4
2019-03-05T00:16:57.233Z,0.5
2019-03-05T00:17:57.474Z,0.6
2019-03-05T00:18:57.348Z,0.6
2019-03-05T00:19:57.035Z,0.4
2019-03-05T00:20:57.435Z,0.6
2019-03-05T00:21:57.157Z,0.5
2019-03-05T00:22:57.013Z,0.5
2019-03-05T00:23:57.458Z,0.5
2019-03-05T00:24:57.427Z,0.5
2019-03-05T00:25:57.535Z,0.6
2019-03-05T00:26:57.016Z,0.6
2019-03-05T00:27:57.024Z,0.5
2019-03-05T00:28:57.040Z,0.5
2019-03-05T00:29:57.434Z,0.6
2019-03-05T00:30:57.247Z,0.6
2019-03-05T00:31:57.257Z,0.6
2019-03-05T00:32:57.115Z,0.6
2019-03-05T00:33:57.085Z,0.6
2019-03-05T00:34:57.244Z,0.6
2019-03-05T00:35:57.094Z,0.5
2019-03-05T00:36:57.449Z,0.6
2019-03-05T00:37:57.100Z,0.5
2019-03-05T00:38:57.052Z,0.7
2019-03-05T00:39:57.097Z,0.5
2019-03-05T00:40:57.090Z,0.6
2019-03-05T00:41:57.230Z,0.5
2019-03-05T00:42:57.464Z,0.6
2019-03-05T00:43:57.147Z,0.6
2019-03-05T00:44:57.505Z,0.4
2019-03-05T00:45:57.472Z,0.7
2019-03-05T00:46:57.624Z,0.5
2019-03-05T00:47:57.256Z,0.5
2019-03-05T00:48:57.208Z,0.6
2019-03-05T00:49:57.114Z,0.5
2019-03-05T00:50:57.314Z,0.6
2019-03-05T00:51:57.080Z,0.8
2019-03-05T00:52:57.087Z,0.6
2019-03-05T00:53:57.289Z,0.5
2019-03-05T00:54:57.105Z,0.6
2019-03-05T00:55:57.103Z,0.6
2019-03-05T00:56:57.533Z,0.6
2019-03-05T00:57:57.105Z,0.7
2019-03-05T00:58:57.505Z,0.7
2019-03-05T00:59:57.094Z,0.7
2019-03-05T01:00:57.511Z,0.6
2019-03-05T01:01:57.357Z,0.7
2019-03-05T01:02:57.637Z,0.6
2019-03-05T01:03:57.083Z,0.8
2019-03-05T01:04:57.100Z,0.7
2019-03-05T01:05:57.535Z,0.7
2019-03-05T01:06:57.346Z,0.8
2019-03-05T01:07:57.490Z,0.7
2019-03-05T01:08:57.100Z,0.7
2019-03-05T01:09:57.236Z,0.7
2019-03-05T01:10:57.133Z,0.7
2019-03-05T01:11:57.100Z,0.6
2019-03-05T01:12:57.607Z,0.7
2019-03-05T01:13:57.344Z,0.8
2019-03-05T01:14:57.375Z,0.7
2019-03-05T01:15:57.138Z,0.6
2019-03-05T01:16:57.556Z,0.7
2019-03-05T01:17:57.600Z,0.7
2019-03-05T01:18:57.549Z,0.6
2019-03-05T01:19:57.573Z,0.7
2019-03-05T01:20:57.359Z,0.7
2019-03-05T01:21:57.359Z,0.6
2019-03-05T01:22:57.596Z,0.6
2019-03-05T01:23:57.200Z,0.7
2019-03-05T01:24:57.388Z,0.8
2019-03-05T01:25:57.564Z,0.6
2019-03-05T01:26:57.553Z,0.5
2019-03-05T01:27:57.159Z,0.7
2019-03-05T01:28:57.212Z,0.7
2019-03-05T01:29:57.129Z,0.5
2019-03-05T01:30:57.196Z,0.6
2019-03-05T01:31:57.592Z,0.7
2019-03-05T01:32:57.172Z,0.8
2019-03-05T01:33:57.467Z,0.7
2019-03-05T01:34:57.127Z,0.6
2019-03-05T01:35:57.186Z,0.6
2019-03-05T01:36:57.150Z,0.6
2019-03-05T01:37:57.177Z,0.6
2019-03-05T01:38:57.456Z,0.5
2019-03-05T01:39:57.139Z,0.7
2019-03-05T01:40:57.141Z,0.8
2019-03-05T01:41:57.335Z,0.6
2019-03-05T01:42:57.209Z,0.7
2019-03-05T01:43:57.225Z,0.7
2019-03-05T01:44:57.333Z,0.8
2019-03-05T01:45:57.788Z,0.7
2019-03-05T01:46:57.329Z,0.8
2019-03-05T01:47:57.159Z,0.6
2019-03-05T01:48:57.575Z,0.6
2019-03-05T01:49:57.190Z,0.6
2019-03-05T01:50:57.133Z,0.6
2019-03-05T01:51:57.240Z,0.7
2019-03-05T01:52:57.242Z,0.7
2019-03-05T01:53:57.338Z,0.8
2019-03-05T01:54:57.468Z,0.6
2019-03-05T01:55:57.249Z,0.7
2019-03-05T01:56:57.460Z,0.6
2019-03-05T01:57:57.709Z,0.7
2019-03-05T01:58:57.498Z,0.6
2019-03-05T01:59:57.592Z,0.7
2019-03-05T02:00:57.226Z,0.9
2019-03-05T02:01:57.211Z,0.7
2019-03-05T02:02:57.763Z,0.7
2019-03-05T02:03:57.336Z,0.8
2019-03-05T02:04:57.437Z,0.8
2019-03-05T02:05:57.642Z,0.8
2019-03-05T02:06:57.753Z,0.6
2019-03-05T02:07:57.470Z,0.7
2019-03-05T02:08:57.330Z,0.6
2019-03-05T02:09:58.054Z,1.0
2019-03-05T02:10:57.556Z,0.7
2019-03-05T02:11:57.561Z,0.7
2019-03-05T02:12:57.376Z,0.9
2019-03-05T02:13:57.819Z,0.8
2019-03-05T02:14:57.337Z,0.7
2019-03-05T02:15:57.276Z,0.9
2019-03-05T02:16:57.347Z,0.8
2019-03-05T02:17:57.744Z,0.7
2019-03-05T02:18:58.061Z,0.7
2019-03-05T02:19:57.302Z,0.7
2019-03-05T02:20:57.364Z,0.6
2019-03-05T02:21:57.695Z,0.6
2019-03-05T02:22:57.758Z,0.7
2019-03-05T02:23:57.731Z,0.8
2019-03-05T02:24:57.312Z,0.6
2019-03-05T02:25:57.395Z,0.7
2019-03-05T02:26:57.274Z,0.8
2019-03-05T02:27:57.373Z,0.7
2019-03-05T02:28:57.574Z,0.8
2019-03-05T02:30:00.803Z,0.9
2019-03-05T02:30:57.384Z,0.7
2019-03-05T02:31:57.924Z,0.8
2019-03-05T02:32:57.825Z,0.6
2019-03-05T02:33:57.606Z,0.6
2019-03-05T02:34:57.513Z,0.7
2019-03-05T02:35:57.896Z,0.8
2019-03-05T02:36:57.871Z,0.8
2019-03-05T02:37:57.505Z,0.7
2019-03-05T02:38:57.555Z,0.8
2019-03-05T02:39:57.398Z,1.0
2019-03-05T02:40:57.817Z,0.8
2019-03-05T02:41:57.521Z,0.7
2019-03-05T02:42:57.326Z,0.9
2019-03-05T02:43:57.304Z,0.7
2019-03-05T02:44:57.836Z,0.7
2019-03-05T02:45:57.441Z,0.9
2019-03-05T02:46:57.595Z,0.7
2019-03-05T02:47:57.501Z,0.9
2019-03-05T02:48:57.384Z,1.0
2019-03-05T02:49:57.320Z,0.8
2019-03-05T02:50:57.364Z,0.9
2019-03-05T02:51:57.799Z,0.8
2019-03-05T02:53:00.143Z,0.8
2019-03-05T02:53:57.759Z,0.7
2019-03-05T02:54:57.413Z,0.8
2019-03-05T02:55:57.924Z,0.7
2019-03-05T02:56:57.770Z,0.8
2019-03-05T02:57:57.824Z,0.8
2019-03-05T02:58:57.870Z,0.7
2019-03-05T02:59:57.878Z,0.8
2019-03-05T03:00:57.595Z,0.7
2019-03-05T03:01:57.513Z,0.8
2019-03-05T03:02:57.915Z,0.6
2019-03-05T03:03:57.594Z,0.9
2019-03-05T03:04:57.460Z,0.8
2019-03-05T03:05:57.439Z,0.8
2019-03-05T03:06:57.634Z,0.9
2019-03-05T03:07:57.420Z,0.8
2019-03-05T03:08:57.417Z,0.9
2019-03-05T03:09:57.581Z,0.8
2019-03-05T03:10:57.597Z,0.8
2019-03-05T03:11:57.410Z,0.7
2019-03-05T03:12:57.896Z,0.7
2019-03-05T03:13:57.449Z,0.6
2019-03-05T03:14:57.428Z,0.9
2019-03-05T03:15:57.402Z,0.9
2019-03-05T03:16:57.511Z,0.9
2019-03-05T03:17:57.529Z,0.7
2019-03-05T03:18:57.605Z,0.8
2019-03-05T03:19:57.823Z,0.7
2019-03-05T03:20:57.497Z,0.9
2019-03-05T03:21:57.636Z,0.7
2019-03-05T03:22:57.945Z,0.7
2019-03-05T03:23:57.950Z,0.9
2019-03-05T03:24:57.470Z,0.9
2019-03-05T03:25:57.674Z,0.8
2019-03-05T03:26:57.625Z,0.8
2019-03-05T03:27:57.589Z,0.6
2019-03-05T03:28:57.553Z,0.8
2019-03-05T03:29:58.124Z,1.0
2019-03-05T03:30:57.798Z,0.8
2019-03-05T03:31:57.594Z,0.9
2019-03-05T03:32:57.913Z,0.8
2019-03-05T03:33:57.806Z,0.9
2019-03-05T03:34:57.862Z,0.8
2019-03-05T03:35:58.024Z,0.9
2019-03-05T03:36:57.486Z,0.9
2019-03-05T03:37:57.740Z,0.8
2019-03-05T03:38:57.538Z,0.8
2019-03-05T03:39:57.544Z,0.9
2019-03-05T03:40:57.962Z,1.0
2019-03-05T03:41:58.101Z,0.9
2019-03-05T03:42:59.285Z,0.8
2019-03-05T03:43:57.710Z,0.7
2019-03-05T03:44:57.537Z,0.8
2019-03-05T03:45:57.635Z,1.0
2019-03-05T03:46:58.025Z,1.0
2019-03-05T03:47:57.584Z,0.8
2019-03-05T03:48:58.058Z,1.0
2019-03-05T03:49:57.550Z,0.8
2019-03-05T03:50:57.569Z,0.8
2019-03-05T03:51:57.558Z,0.6
2019-03-05T03:52:57.823Z,0.9
2019-03-05T03:53:57.674Z,0.9
2019-03-05T03:54:57.491Z,0.8
2019-03-05T03:55:57.827Z,1.0
2019-03-05T03:56:57.642Z,0.9
2019-03-05T03:57:57.546Z,1.0
2019-03-05T03:58:57.560Z,1.0
2019-03-05T03:59:57.600Z,0.9
2019-03-05T04:00:57.562Z,0.9
2019-03-05T04:01:57.661Z,0.8
2019-03-05T04:02:57.796Z,1.0
2019-03-05T04:03:57.819Z,0.8
2019-03-05T04:04:58.097Z,1.0
2019-03-05T04:05:57.917Z,0.8
2019-03-05T04:06:58.184Z,0.8
2019-03-05T04:07:57.803Z,0.9
2019-03-05T04:08:58.031Z,0.9
2019-03-05T04:09:57.589Z,0.9
2019-03-05T04:10:57.796Z,0.8
2019-03-05T04:11:58.049Z,0.9
2019-03-05T04:12:58.106Z,0.9
2019-03-05T04:13:59.495Z,1.0
2019-03-05T04:14:57.573Z,0.9
2019-03-05T04:15:57.811Z,0.8
2019-03-05T04:16:57.623Z,0.9
2019-03-05T04:17:58.115Z,0.9
2019-03-05T04:18:57.826Z,0.8
2019-03-05T04:19:57.730Z,0.9
2019-03-05T04:20:58.091Z,0.9
2019-03-05T04:21:57.581Z,1.0
2019-03-05T04:22:57.616Z,0.9
2019-03-05T04:23:57.741Z,0.8
2019-03-05T04:24:57.767Z,0.8
2019-03-05T04:25:58.063Z,0.8
2019-03-05T04:26:57.612Z,1.0
2019-03-05T04:27:57.637Z,1.0
2019-03-05T04:28:57.794Z,1.0
2019-03-05T04:29:58.079Z,1.2
2019-03-05T04:30:57.771Z,1.0
2019-03-05T04:31:57.679Z,1.0
2019-03-05T04:32:57.646Z,0.8
2019-03-05T04:33:57.658Z,1.0
2019-03-05T04:34:57.786Z,0.9
2019-03-05T04:35:57.686Z,1.0
2019-03-05T04:36:57.560Z,0.8
2019-03-05T04:37:57.827Z,0.7
2019-03-05T04:38:57.785Z,1.0
2019-03-05T04:39:57.572Z,0.8
2019-03-05T04:40:57.595Z,0.8
2019-03-05T04:41:57.842Z,0.7
2019-03-05T04:42:57.779Z,0.9
2019-03-05T04:43:57.994Z,0.8
2019-03-05T04:44:57.591Z,0.8
2019-03-05T04:45:57.776Z,0.8
2019-03-05T04:46:58.134Z,0.8
2019-03-05T04:47:57.896Z,1.0
2019-03-05T04:48:57.793Z,0.7
2019-03-05T04:49:58.097Z,1.0
2019-03-05T04:50:57.927Z,0.9
2019-03-05T04:51:58.132Z,0.9
2019-03-05T04:52:57.649Z,0.9
2019-03-05T04:53:57.850Z,0.7
2019-03-05T04:54:57.895Z,0.8
2019-03-05T04:55:57.696Z,1.0
2019-03-05T04:56:57.903Z,0.9
2019-03-05T04:57:57.719Z,0.9
2019-03-05T04:58:57.828Z,0.8
2019-03-05T04:59:57.696Z,0.7
2019-03-05T05:00:58.111Z,0.9
2019-03-05T05:02:14.170Z,0.9
2019-03-05T05:02:58.459Z,0.8
2019-03-05T05:03:57.724Z,1.0
2019-03-05T05:04:58.097Z,0.9
2019-03-05T05:05:57.777Z,0.8
2019-03-05T05:06:57.667Z,0.8
2019-03-05T05:07:57.623Z,0.7
2019-03-05T05:08:57.670Z,0.7
2019-03-05T05:09:57.720Z,0.9
2019-03-05T05:10:58.207Z,0.9
2019-03-05T05:11:57.662Z,0.8
2019-03-05T05:12:58.055Z,0.8
2019-03-05T05:13:58.089Z,0.8
2019-03-05T05:14:57.702Z,0.8
2019-03-05T05:15:58.178Z,0.9
2019-03-05T05:16:57.653Z,0.8
2019-03-05T05:17:57.597Z,1.0
2019-03-05T05:18:57.771Z,0.8
2019-03-05T05:19:58.091Z,0.8
2019-03-05T05:20:57.611Z,1.0
2019-03-05T05:21:57.651Z,1.0
2019-03-05T05:22:58.071Z,0.8
2019-03-05T05:23:57.683Z,0.7
2019-03-05T05:24:57.720Z,0.9
2019-03-05T05:25:57.733Z,0.9
2019-03-05T05:26:58.053Z,0.8
2019-03-05T05:27:57.836Z,0.9
2019-03-05T05:28:58.156Z,0.9
2019-03-05T05:29:58.876Z,0.9
2019-03-05T05:30:57.767Z,0.9
2019-03-05T05:31:58.378Z,0.9
2019-03-05T05:32:57.682Z,0.8
2019-03-05T05:33:58.667Z,0.9
2019-03-05T05:34:57.904Z,1.0
2019-03-05T05:35:58.949Z,0.9
2019-03-05T05:36:57.801Z,0.9
2019-03-05T05:37:58.653Z,1.2
2019-03-05T05:38:57.741Z,0.9
2019-03-05T05:39:57.792Z,1.0
2019-03-05T05:40:57.746Z,0.9
2019-03-05T05:41:58.141Z,1.0
2019-03-05T05:42:57.938Z,1.1
2019-03-05T05:43:57.952Z,0.9
2019-03-05T05:44:58.252Z,0.9
2019-03-05T05:45:57.826Z,0.9
2019-03-05T05:46:58.264Z,0.8
2019-03-05T05:47:58.314Z,1.0
2019-03-05T05:48:57.971Z,1.0
2019-03-05T05:49:57.915Z,1.0
2019-03-05T05:50:57.819Z,1.0
2019-03-05T05:51:58.134Z,0.9
2019-03-05T05:52:58.260Z,0.9
2019-03-05T05:53:57.858Z,1.0
2019-03-05T05:54:57.806Z,0.8
2019-03-05T05:55:58.021Z,0.9
2019-03-05T05:56:57.948Z,0.9
2019-03-05T05:57:58.751Z,0.9
2019-03-05T05:58:57.951Z,0.9
2019-03-05T05:59:57.856Z,0.8
2019-03-05T06:00:58.002Z,1.0
2019-03-05T06:01:58.211Z,1.0
2019-03-05T06:02:58.264Z,0.9
2019-03-05T06:03:57.960Z,1.0
2019-03-05T06:04:58.163Z,0.8
2019-03-05T06:05:58.124Z,1.0
2019-03-05T06:06:58.233Z,1.3
2019-03-05T06:07:58.015Z,1.2
2019-03-05T06:08:57.885Z,0.8
2019-03-05T06:09:58.302Z,0.8
2019-03-05T06:10:58.155Z,0.9
2019-03-05T06:11:58.015Z,1.0
2019-03-05T06:12:58.321Z,0.8
2019-03-05T06:13:57.836Z,0.8
2019-03-05T06:14:58.174Z,0.8
2019-03-05T06:15:58.151Z,0.8
2019-03-05T06:16:57.851Z,0.9
2019-03-05T06:17:57.811Z,1.0
2019-03-05T06:18:58.327Z,0.9
2019-03-05T06:19:57.935Z,0.8
2019-03-05T06:20:57.841Z,0.9
2019-03-05T06:21:57.981Z,0.9
2019-03-05T06:22:57.914Z,0.9
2019-03-05T06:23:57.888Z,1.0
2019-03-05T06:24:57.879Z,0.9
2019-03-05T06:25:58.106Z,1.0
2019-03-05T06:26:58.320Z,1.1
2019-03-05T06:27:57.843Z,0.9
2019-03-05T06:28:57.848Z,0.8
2019-03-05T06:29:58.934Z,0.9
2019-03-05T06:30:57.898Z,0.9
2019-03-05T06:31:58.330Z,0.9
2019-03-05T06:32:58.021Z,0.8
2019-03-05T06:33:57.874Z,0.8
2019-03-05T06:34:58.746Z,1.1
2019-03-05T06:35:57.949Z,0.8
2019-03-05T06:36:58.625Z,1.0
2019-03-05T06:37:58.121Z,1.2
2019-03-05T06:38:57.869Z,1.3
2019-03-05T06:39:58.357Z,1.2
2019-03-05T06:40:58.083Z,1.2
2019-03-05T06:41:57.910Z,1.1
2019-03-05T06:42:57.979Z,0.9
2019-03-05T06:43:57.855Z,1.1
2019-03-05T06:44:58.185Z,1.3
2019-03-05T06:45:58.056Z,1.0
2019-03-05T06:46:57.991Z,1.1
2019-03-05T06:47:57.935Z,1.0
2019-03-05T06:48:58.075Z,1.1
2019-03-05T06:49:58.379Z,1.1
2019-03-05T06:50:58.215Z,1.0
2019-03-05T06:51:59.071Z,1.0
2019-03-05T06:52:58.791Z,1.0
2019-03-05T06:53:58.146Z,1.2
2019-03-05T06:54:58.454Z,0.9
2019-03-05T06:55:58.120Z,1.0
2019-03-05T06:56:57.957Z,1.0
2019-03-05T06:57:58.366Z,1.1
2019-03-05T06:58:57.870Z,1.1
2019-03-05T06:59:58.069Z,0.9
2019-03-05T07:00:57.975Z,0.9
2019-03-05T07:01:58.105Z,0.9
2019-03-05T07:02:58.010Z,0.9
2019-03-05T07:03:58.835Z,0.9
2019-03-05T07:04:58.144Z,1.1
2019-03-05T07:05:58.104Z,1.1
2019-03-05T07:06:58.050Z,1.0
2019-03-05T07:07:58.905Z,1.0
2019-03-05T07:08:58.532Z,1.1
2019-03-05T07:09:58.191Z,0.9
2019-03-05T07:10:58.839Z,1.1
2019-03-05T07:11:57.954Z,1.0
2019-03-05T07:12:58.016Z,1.1
2019-03-05T07:13:58.008Z,0.8
2019-03-05T07:14:59.330Z,0.9
2019-03-05T07:15:58.007Z,0.9
2019-03-05T07:16:58.247Z,1.0
2019-03-05T07:17:58.219Z,0.9
2019-03-05T07:18:58.227Z,1.2
2019-03-05T07:19:58.450Z,0.9
2019-03-05T07:20:58.219Z,0.8
2019-03-05T07:21:58.210Z,1.1
2019-03-05T07:22:58.344Z,1.1
2019-03-05T07:23:57.917Z,0.9
2019-03-05T07:24:58.236Z,0.9
2019-03-05T07:25:58.170Z,0.8
2019-03-05T07:26:57.986Z,1.0
2019-03-05T07:27:57.928Z,1.0
2019-03-05T07:28:57.945Z,0.8
2019-03-05T07:29:58.168Z,1.0
2019-03-05T07:30:58.062Z,1.0
2019-03-05T07:31:58.396Z,1.0
2019-03-05T07:32:58.174Z,1.1
2019-03-05T07:33:57.893Z,0.9
2019-03-05T07:34:58.590Z,1.0
2019-03-05T07:35:58.138Z,0.8
2019-03-05T07:36:58.137Z,0.9
2019-03-05T07:37:57.874Z,0.9
2019-03-05T07:38:58.059Z,1.0
2019-03-05T07:39:58.115Z,0.8
2019-03-05T07:40:57.910Z,0.9
2019-03-05T07:41:57.900Z,0.8
2019-03-05T07:42:58.026Z,1.0
2019-03-05T07:43:57.905Z,1.1
2019-03-05T07:45:14.479Z,0.8
2019-03-05T07:45:57.976Z,1.0
2019-03-05T07:46:58.061Z,0.9
2019-03-05T07:47:58.079Z,1.0
2019-03-05T07:48:58.303Z,0.9
2019-03-05T07:49:58.022Z,0.9
2019-03-05T07:50:58.046Z,0.9
2019-03-05T07:51:57.924Z,1.0
2019-03-05T07:52:58.717Z,0.8
2019-03-05T07:53:58.015Z,1.0
2019-03-05T07:54:58.403Z,1.1
2019-03-05T07:55:57.950Z,0.8
2019-03-05T07:56:58.069Z,1.0
2019-03-05T07:57:58.317Z,0.8
2019-03-05T07:58:58.132Z,0.9
2019-03-05T07:59:58.315Z,0.9
2019-03-05T08:00:58.226Z,0.8
2019-03-05T08:01:58.476Z,0.9
2019-03-05T08:02:58.032Z,1.0
2019-03-05T08:04:00.307Z,1.0
2019-03-05T08:04:58.081Z,0.9
2019-03-05T08:05:57.970Z,0.9
2019-03-05T08:06:58.101Z,0.9
2019-03-05T08:07:58.076Z,0.8
2019-03-05T08:08:58.263Z,1.4
2019-03-05T08:09:58.009Z,0.9
2019-03-05T08:10:58.121Z,1.1
2019-03-05T08:11:58.169Z,0.8
2019-03-05T08:12:58.031Z,1.0
2019-03-05T08:13:57.950Z,0.9
2019-03-05T08:14:58.680Z,0.9
2019-03-05T08:16:02.014Z,0.9
2019-03-05T08:16:57.985Z,0.9
2019-03-05T08:17:58.004Z,0.9
2019-03-05T08:18:58.255Z,0.8
2019-03-05T08:19:58.484Z,1.0
2019-03-05T08:20:58.477Z,1.1
2019-03-05T08:21:58.151Z,1.0
2019-03-05T08:22:58.423Z,0.9
2019-03-05T08:23:57.930Z,1.0
2019-03-05T08:24:58.734Z,1.0
2019-03-05T08:25:58.181Z,1.0
2019-03-05T08:26:58.421Z,1.0
2019-03-05T08:27:58.393Z,1.0
2019-03-05T08:28:58.002Z,1.0
2019-03-05T08:29:58.198Z,1.1
2019-03-05T08:30:58.431Z,1.1
2019-03-05T08:31:58.216Z,0.8
2019-03-05T08:32:58.252Z,0.9
2019-03-05T08:33:57.960Z,0.9
2019-03-05T08:34:59.018Z,1.1
2019-03-05T08:35:58.100Z,0.9
2019-03-05T08:36:58.176Z,0.9
2019-03-05T08:38:26.469Z,0.8
2019-03-05T08:38:58.010Z,0.9
2019-03-05T08:39:58.196Z,0.9
2019-03-05T08:40:58.016Z,0.9
2019-03-05T08:41:58.123Z,1.0
2019-03-05T08:42:58.037Z,0.9
2019-03-05T08:43:58.074Z,0.8
2019-03-05T08:44:58.015Z,0.9
2019-03-05T08:45:58.286Z,1.0
2019-03-05T08:46:58.029Z,0.9
2019-03-05T08:47:58.017Z,1.1
2019-03-05T08:48:57.977Z,1.0
2019-03-05T08:49:58.182Z,0.9
2019-03-05T08:50:57.972Z,1.1
2019-03-05T08:51:58.045Z,1.1
2019-03-05T08:52:58.925Z,0.8
2019-03-05T08:53:59.324Z,0.9
2019-03-05T08:54:58.525Z,1.0
2019-03-05T08:55:58.143Z,0.9
2019-03-05T08:56:58.097Z,1.0
2019-03-05T08:57:58.113Z,1.0
2019-03-05T08:58:58.169Z,0.9
2019-03-05T08:59:58.467Z,0.9
2019-03-05T09:00:58.237Z,0.8
2019-03-05T09:01:58.265Z,0.9
2019-03-05T09:02:58.111Z,1.0
2019-03-05T09:03:58.237Z,0.9
2019-03-05T09:04:58.543Z,1.1
2019-03-05T09:05:58.111Z,0.8
2019-03-05T09:06:58.897Z,1.0
2019-03-05T09:07:58.251Z,1.1
2019-03-05T09:08:58.072Z,1.0
2019-03-05T09:09:58.249Z,0.8
2019-03-05T09:10:58.463Z,0.9
2019-03-05T09:11:58.639Z,0.9
2019-03-05T09:12:58.083Z,1.0
2019-03-05T09:13:58.336Z,0.9
2019-03-05T09:14:58.115Z,1.0
2019-03-05T09:15:58.136Z,1.0
2019-03-05T09:16:58.074Z,0.8
2019-03-05T09:17:58.437Z,0.8
2019-03-05T09:19:00.243Z,0.9
2019-03-05T09:20:02.341Z,0.9
2019-03-05T09:21:00.094Z,1.0
2019-03-05T09:21:58.490Z,0.9
2019-03-05T09:22:58.149Z,1.0
2019-03-05T09:23:58.779Z,0.8
2019-03-05T09:25:00.937Z,0.8
2019-03-05T09:26:02.251Z,0.9
2019-03-05T09:26:58.851Z,0.8
2019-03-05T09:28:00.196Z,0.9
2019-03-05T09:28:58.416Z,0.8
2019-03-05T09:29:58.147Z,0.8
2019-03-05T09:31:01.005Z,0.9
2019-03-05T09:32:00.120Z,0.9
2019-03-05T09:32:58.695Z,1.0
2019-03-05T09:34:00.261Z,0.8
2019-03-05T09:34:58.434Z,0.9
2019-03-05T09:35:58.159Z,0.9
2019-03-05T09:37:01.311Z,1.0
2019-03-05T09:37:58.527Z,0.9
2019-03-05T09:38:58.498Z,0.9
2019-03-05T09:39:59.045Z,0.9
2019-03-05T09:40:58.088Z,0.8
2019-03-05T09:41:58.470Z,1.0
2019-03-05T09:42:59.170Z,0.9
2019-03-05T09:43:59.363Z,0.9
2019-03-05T09:44:58.309Z,0.9
2019-03-05T09:45:58.228Z,1.0
2019-03-05T09:46:58.562Z,1.0
2019-03-05T09:47:58.164Z,0.9
2019-03-05T09:48:58.154Z,0.9
2019-03-05T09:50:01.313Z,1.0
2019-03-05T09:50:59.316Z,0.9
2019-03-05T09:52:02.519Z,0.9
2019-03-05T09:52:58.448Z,1.0
2019-03-05T09:54:00.400Z,0.7
2019-03-05T09:54:59.436Z,0.9
2019-03-05T09:55:58.611Z,0.9
2019-03-05T09:56:58.770Z,0.8
2019-03-05T09:58:07.015Z,0.8
2019-03-05T09:58:58.300Z,0.8
2019-03-05T09:59:58.330Z,0.9
2019-03-05T10:00:58.616Z,1.0
2019-03-05T10:02:14.395Z,0.8
2019-03-05T10:02:58.185Z,0.8
2019-03-05T10:03:58.232Z,0.8
2019-03-05T10:04:58.241Z,0.8
2019-03-05T10:05:58.352Z,0.9
2019-03-05T10:06:58.176Z,0.7
2019-03-05T10:08:00.318Z,0.7
2019-03-05T10:08:59.084Z,0.8
2019-03-05T10:09:58.358Z,0.8
2019-03-05T10:10:58.295Z,0.9
2019-03-05T10:12:00.664Z,0.8
2019-03-05T10:12:58.808Z,0.8
2019-03-05T10:13:58.587Z,0.8
2019-03-05T10:14:58.419Z,0.9
2019-03-05T10:15:58.187Z,0.7
2019-03-05T10:16:58.230Z,0.8
2019-03-05T10:17:58.425Z,0.9
2019-03-05T10:18:58.268Z,0.8
2019-03-05T10:19:58.154Z,0.8
2019-03-05T10:20:58.624Z,0.9
2019-03-05T10:21:59.135Z,0.9
2019-03-05T10:22:58.539Z,1.0
2019-03-05T10:24:09.541Z,1.0
2019-03-05T10:25:05.619Z,0.8
2019-03-05T10:25:58.736Z,0.8
2019-03-05T10:26:58.217Z,0.8
2019-03-05T10:27:58.638Z,0.7
2019-03-05T10:28:58.480Z,0.9
2019-03-05T10:29:58.352Z,0.9
2019-03-05T10:30:58.215Z,0.8
2019-03-05T10:31:58.898Z,0.8
2019-03-05T10:32:58.835Z,1.0
2019-03-05T10:33:58.758Z,1.0
2019-03-05T10:34:58.399Z,0.9
2019-03-05T10:35:58.172Z,0.9
2019-03-05T10:36:58.453Z,0.9
2019-03-05T10:37:58.829Z,1.0
2019-03-05T10:38:58.672Z,0.9
2019-03-05T10:39:58.142Z,0.7
2019-03-05T10:40:58.406Z,0.8
2019-03-05T10:41:58.629Z,0.9
2019-03-05T10:43:07.788Z,1.0
2019-03-05T10:43:58.409Z,0.8
2019-03-05T10:44:58.650Z,0.8
2019-03-05T10:45:58.954Z,0.8
2019-03-05T10:46:58.296Z,0.9
2019-03-05T10:47:58.701Z,0.9
2019-03-05T10:48:58.524Z,0.8
2019-03-05T10:49:58.263Z,0.9
2019-03-05T10:50:58.439Z,0.8
2019-03-05T10:51:58.990Z,0.8
2019-03-05T10:52:58.795Z,0.9
2019-03-05T10:53:58.540Z,0.7
2019-03-05T10:54:58.480Z,0.7
2019-03-05T10:55:58.486Z,1.0
2019-03-05T10:56:58.623Z,0.9
2019-03-05T10:57:58.607Z,0.7
2019-03-05T10:58:58.268Z,0.8
2019-03-05T10:59:58.659Z,0.7
2019-03-05T11:00:58.795Z,0.7
2019-03-05T11:01:58.279Z,0.8
2019-03-05T11:02:58.341Z,0.8
2019-03-05T11:03:58.675Z,0.8
2019-03-05T11:04:58.334Z,0.8
2019-03-05T11:05:58.565Z,0.8
2019-03-05T11:06:58.672Z,0.9
2019-03-05T11:07:58.386Z,0.8
2019-03-05T11:08:58.307Z,0.7
2019-03-05T11:09:58.473Z,0.9
2019-03-05T11:10:58.533Z,0.8
2019-03-05T11:11:58.712Z,0.8
2019-03-05T11:12:58.285Z,1.0
2019-03-05T11:13:58.272Z,0.7
2019-03-05T11:14:58.338Z,0.8
2019-03-05T11:15:58.842Z,0.9
2019-03-05T11:16:58.302Z,1.0
2019-03-05T11:17:58.658Z,0.7
2019-03-05T11:18:58.328Z,0.8
2019-03-05T11:19:58.468Z,0.7
2019-03-05T11:20:58.758Z,1.0
2019-03-05T11:21:58.707Z,0.8
2019-03-05T11:22:58.689Z,1.0
2019-03-05T11:23:58.228Z,0.9
2019-03-05T11:24:58.535Z,0.8
2019-03-05T11:25:58.363Z,0.9
2019-03-05T11:26:58.705Z,0.7
2019-03-05T11:27:58.482Z,0.8
2019-03-05T11:28:58.756Z,0.8
2019-03-05T11:29:58.337Z,0.9
2019-03-05T11:30:58.723Z,0.8
2019-03-05T11:31:58.323Z,0.8
2019-03-05T11:32:58.249Z,1.1
2019-03-05T11:33:58.482Z,0.7
2019-03-05T11:34:58.457Z,0.8
2019-03-05T11:35:58.298Z,1.0
2019-03-05T11:36:58.765Z,0.9
2019-03-05T11:37:58.470Z,0.7
2019-03-05T11:38:58.316Z,0.7
2019-03-05T11:39:58.817Z,0.7
2019-03-05T11:40:58.497Z,0.7
2019-03-05T11:41:58.767Z,0.9
2019-03-05T11:42:58.464Z,0.9
2019-03-05T11:43:58.320Z,0.7
2019-03-05T11:45:06.704Z,0.8
2019-03-05T11:45:58.722Z,0.8
2019-03-05T11:46:58.364Z,0.9
2019-03-05T11:47:58.334Z,0.8
2019-03-05T11:48:58.284Z,0.8
2019-03-05T11:49:58.366Z,0.8
2019-03-05T11:50:58.301Z,0.7
2019-03-05T11:51:58.496Z,0.8
2019-03-05T12:02:45.139Z,0.8
2019-03-05T12:02:53.998Z,0.8
2019-03-05T12:03:54.145Z,0.8
2019-03-05T12:04:53.966Z,0.9
2019-03-05T12:05:54.490Z,0.8
2019-03-05T12:06:54.260Z,0.8
2019-03-05T12:07:54.075Z,0.8
2019-03-05T12:08:54.331Z,1.0
2019-03-05T12:09:54.303Z,1.0
2019-03-05T12:10:54.206Z,1.0
2019-03-05T12:11:54.405Z,0.7
2019-03-05T12:12:53.940Z,0.9
2019-03-05T12:13:54.156Z,0.9
2019-03-05T12:14:53.933Z,0.9
2019-03-05T12:15:53.986Z,0.9
2019-03-05T12:16:53.935Z,0.7
2019-03-05T12:17:54.105Z,0.9
2019-03-05T12:18:54.183Z,0.9
2019-03-05T12:19:53.929Z,0.9
2019-03-05T12:20:56.168Z,1.0
2019-03-05T12:21:54.380Z,0.9
2019-03-05T12:22:53.960Z,1.1
2019-03-05T12:23:54.048Z,0.9
2019-03-05T12:24:57.541Z,0.8
2019-03-05T12:25:53.986Z,0.8
2019-03-05T12:26:53.957Z,0.8
2019-03-05T12:27:53.981Z,0.6
2019-03-05T12:28:53.941Z,0.9
2019-03-05T12:29:54.405Z,0.9
2019-03-05T12:30:53.923Z,0.8
2019-03-05T12:31:54.371Z,0.9
2019-03-05T12:32:54.169Z,0.8
2019-03-05T12:33:53.979Z,0.9
2019-03-05T12:34:54.200Z,0.8
2019-03-05T12:35:54.516Z,1.0
2019-03-05T12:36:54.451Z,1.0
2019-03-05T12:37:54.198Z,0.9
2019-03-05T12:38:54.169Z,1.0
2019-03-05T12:39:53.986Z,1.0
2019-03-05T12:40:54.722Z,0.9
2019-03-05T12:41:54.016Z,1.0
2019-03-05T12:42:54.139Z,0.9
2019-03-05T12:43:54.257Z,1.0
2019-03-05T12:44:54.203Z,0.9
2019-03-05T12:45:54.495Z,1.0
2019-03-05T12:46:54.430Z,0.8
2019-03-05T12:47:54.052Z,0.9
2019-03-05T12:48:54.455Z,0.8
2019-03-05T12:49:54.423Z,0.9
2019-03-05T12:50:54.488Z,0.9
2019-03-05T12:51:54.019Z,0.8
2019-03-05T12:52:54.240Z,0.9
2019-03-05T12:53:54.032Z,0.8
2019-03-05T12:54:56.151Z,0.8
2019-03-05T12:55:54.074Z,0.8
2019-03-05T12:56:54.448Z,0.8
2019-03-05T12:57:54.206Z,0.9
2019-03-05T12:58:54.157Z,1.0
2019-03-05T12:59:54.189Z,0.9
2019-03-05T13:00:54.030Z,0.9
2019-03-05T13:01:54.037Z,0.8
2019-03-05T13:02:54.004Z,0.9
2019-03-05T13:03:54.075Z,0.8
2019-03-05T13:04:54.198Z,0.8
2019-03-05T13:05:54.478Z,1.0
2019-03-05T13:06:54.209Z,0.8
2019-03-05T13:07:56.319Z,0.7
2019-03-05T13:08:54.007Z,0.9
2019-03-05T13:09:56.821Z,0.7
2019-03-05T13:10:54.297Z,0.8
2019-03-05T13:11:54.080Z,0.9
2019-03-05T13:12:54.054Z,0.7
2019-03-05T13:14:05.374Z,0.9
2019-03-05T13:14:54.503Z,0.8
2019-03-05T13:15:56.442Z,0.7
2019-03-05T13:16:54.152Z,0.9
2019-03-05T13:17:54.378Z,0.9
2019-03-05T13:18:54.115Z,0.8
2019-03-05T13:19:54.499Z,0.9
2019-03-05T13:20:54.200Z,1.0
2019-03-05T13:21:54.173Z,0.9
2019-03-05T13:22:54.045Z,0.9
2019-03-05T13:23:54.425Z,0.9
2019-03-05T13:24:54.072Z,0.9
2019-03-05T13:25:54.082Z,0.9
2019-03-05T13:26:54.072Z,0.8
2019-03-05T13:27:57.450Z,0.9
2019-03-05T13:28:54.071Z,0.8
2019-03-05T13:29:54.051Z,1.0
2019-03-05T13:30:54.541Z,1.0
2019-03-05T13:31:54.585Z,1.0
2019-03-05T13:32:58.878Z,0.9
2019-03-05T13:33:54.262Z,0.8
2019-03-05T13:34:54.089Z,0.9
2019-03-05T13:35:54.157Z,0.7
2019-03-05T13:36:54.540Z,0.9
2019-03-05T13:37:54.135Z,1.1
2019-03-05T13:38:54.158Z,0.9
2019-03-05T13:39:54.875Z,0.7
2019-03-05T13:40:54.120Z,0.9
2019-03-05T13:41:54.957Z,0.9
2019-03-05T13:42:54.273Z,0.7
2019-03-05T13:43:55.568Z,0.9
2019-03-05T13:44:54.116Z,0.9
2019-03-05T13:45:54.134Z,1.0
2019-03-05T13:46:54.247Z,0.9
2019-03-05T13:47:54.517Z,0.9
2019-03-05T13:48:58.027Z,0.9
2019-03-05T13:49:56.539Z,0.9
2019-03-05T13:50:54.539Z,1.0
2019-03-05T13:51:56.052Z,0.8
2019-03-05T13:52:55.832Z,0.9
2019-03-05T13:54:05.615Z,1.1
2019-03-05T13:54:54.341Z,0.9
2019-03-05T13:55:54.563Z,0.8